Timeline UpdatesTrip UpdatesNews PostsPvt Posts♥♥Travel TipsAdmin PostsConv PostsFollowed PostsChat RequestsBlog PostsPNR Posts

Disclaimer
Search
 
 
Wed Nov 26, 2014 09:36:05 ISTHomeTrainsΣChainsAtlasPNRForumGalleryNewsFAQTripsMembersLoginFeedback
PNR Super Search

Ticket PNR Status Inquiry - PNR: 213-xxxxxxx (E-Ticket)

OLD STATUS

Status Last Updated on: Jul 15 2012 (4:19PM) IST

Date of Journey: Sun Aug 05, 2012   Class: AC 3-tier - 3A   (Total Seats available for this Class/Quota: Avbl >18)
Passenger 1: Confirmed (Booking Status: B1,40,GN)
Chart NOT Prepared

Amritsar - Mumbai LTT (Pathankot) Express/11058

Travel Time: 22h 28m    47 halts    Distance: 1125 km    Avg Speed: 50 km/hr
Type: Mail/Express
Zone: CR/Central
Departs @ 20:50
Platform# 4
SMTWTFS
New Delhi/NDLS 
Arrives @ 19:18 +1 night
Platform# 2
SMTWTFS
Jalgaon Junction/JL 

47 halts. 156 intermediate Stations between New Delhi and Jalgaon Junction

Show ALL intermediate Stations  Show Old Time-Table

#TrkCodeStation NameX/OArrivesAvgDepartsAvgHaltPFDay#KmSpeedElevZoneAddress
1/==/ASRAmritsar Junction (5)  -08:30-41-502.977233mNRAmritsar 143002, Punjab
2/==/JNLJandiala (2)X  08:45-08:47-2m21-483.768238mNRJandiala, Punjab
3/==/BEASBeas Junction (2)X  09:08-09:10-2m21-459.961238mNRBeas, Punjab
4/==/KREKartarpur (2)X  09:31-09:33-2m11-438.473236mNRKartarpur, Punjab
5/==/JUCJalandhar City Junction (5)X  09:45-09:55-10m21-423.818239mNRJalandhar 144001, Punjab
6/==/JRCJalandhar Cantt. Junction (3)X  10:11-10:13-2m21-418.970239mNRNear Rama Mandi, Punjab
7/==/PGWPhagwara Junction (3)X  10:27-10:29-2m11-402.654245mNRPhagwara, Punjab
8/==/GRYGoraya (2)  10:40-10:42-2m11-392.864240mNRGoraya, Punjab
9/==/PHRPhillaur Junction (3)  10:54-10:56-2m11-380.133246mNRPhillaur, Punjab
10/==/LDHLudhiana Junction (7)  11:20-11:30-10m41-367.029246mNRLudhiana 141001, Punjab
11|--|AHHAhmadgarh (1)  12:23-12:25-2m11-341.679256mNRAhmedgarh, Punjab
12|--|METMalerkotla (2)X  12:40-12:42-2m21-321.753248mNRMalerkotla., Punjab
13|--|DUIDhuri Junction (4)  13:01-13:05 13:04-4 3m--1-304.973248mNRDhuri, Punjab
14|--|NBANabha (1)  13:26-13:28-2m11-278.070250mNRNabha, Punjab
15|--|PTAPatiala (4)X  13:50-13:53-3m11-252.137256mNRPatiala, Punjab
16|--|RPJRajpura Junction (3)OO  14:35 14:33-14:37 14:35-2m21-227.359272mNRNH-1., Punjab
17/==/UBCAmbala City (3)XO  14:56-14:58-2m11-206.821273mNRNH-1, Haryana
18/==/UMBAmbala Cantt. Junction (7)XO15:20-15:50 15:55-30 35m11-199.285278mNRAmbala 133001, Haryana
19/==/SHDMShahbad Markanda (2)  16:09-16:11-2m11-179.378267mNRShahabad Markanda, Haryana
20/==/KKDEKurukshetra Junction (3)X  16:32 16:28-16:34 16:30-2m21-157.160260mNRKurukshetra, Haryana
21/==/NLKRNilokheri (2)X  16:51 16:47-16:53 16:49-2m--1-140.134254mNRNilokheri, Haryana
22/==/TRRTaraori (2)X  17:00 16:56-17:02 16:58-2m21-136.140255mNRTaraori, Haryana
23/==/KUNKarnal (3)  17:16-17:18-2m11-124.066253mNRKarnal, Haryana
24/==/GRAGharaunda (2)  17:34-17:36-2m11-106.656244mNRGharaunda, Haryana
25/==/PNPPanipat Junction (5)X  17:54-17:56-2m21-89.660235mNRPanipat, Haryana
26/==/SMKSamalkha (3)  18:13-18:15-2m11-72.657229mNRSamalkha, Haryana
27/==/GNUGanaur  18:28-18:30-2m--1-60.460222mNRGanaur, Haryana
28/==/SNPSonipat (3)  18:46-18:48-2m11-44.548225mNRSonipat, Haryana
29/==/RDDERathdhana (2)X  19:01-19:03-2m--1-34.050223mNRSonipat, Haryana
30/==/NURNarela (2)  19:11-19:13-2m--1-27.459222mNRNarela, Delhi NCT
31/==/ANDIAdarsh Nagar (2)  19:30-19:32-2m11-10.721214mNRShalimar Bagh, Delhi NCT
32/==/SZMDelhi Sabzi Mandi (2)  19:51-19:53-2m31-4.19220mNRGulabi Bagh, Delhi NCT
33/==/NDLSNew Delhi (16)»X  20:20-20:50-30m410.034215mNRNew Delhi 110002, Delhi NCT
34/==/NZMDelhi Hazrat Nizamuddin (7)X  21:03-21:05-2m417.457209mNRNew Delhi 110013, Delhi NCT
35/==/FDBFaridabad (4)X  21:27-21:29-2m3128.237206mNRold Faridabad, Haryana
36/==/BVHBallabgarh (5)O  21:42-21:44-2m--136.229203mNRFaridabad, Haryana
37/==/PWLPalwal (8)  22:28-22:30-2m--157.485200mNRPalwal, Haryana
38/==/KSVKosi Kalan (3)  23:00-23:02-2m2199.975189mNCRKosi Kalan, Uttar Pradesh
39/==/MTJMathura Junction (10)  23:35-23:40-5m11141.356179mNCRMathura, Uttar Pradesh
40/==/RKMRaja Ki Mandi (4)X  00:33-00:35-2m22191.012170mNCRAgra, Uttar Pradesh
41/==/AGCAgra Cantt. (6)X  00:55-01:05 01:03-10 8m12195.079174mNCRAgra, Uttar Pradesh
42/==/DHODholpur Junction (3)XO  01:41 01:43-01:43 01:45-2m22247.673177mNCRDholpur, Rajasthan
43/==/MRAMorena (3)X  02:05 02:07-02:07 02:09-2m12274.556176mNCRMorena, Madhya Pradesh
44/==/GWLGwalior Junction (4)X  02:50-02:58-8m12313.073214mNCRGwalior, Madhya Pradesh
45/==/DBADabra (3)X  03:31 03:33-03:33 03:35-2m22355.349 NCRDabra(District-Gwalior), Madhya Pradesh
46/==/SORSonagir (2)X  03:56 03:58-03:58 04:00-2m--2374.246211mNCRDatia, Madhya Pradesh
47/==/DAADatia (2)X  04:13 04:15-04:15 04:17-2m22385.746264mNCRDatia, Madhya Pradesh
48/==/JHSJhansi Junction (7)X  04:50-05:00-10m52410.761259mNCRJhansi, Uttar Pradesh
49/==/BABBabina (3)X  05:23 05:25-05:25 05:27-2m12436.252285mNCRBabina, Uttar Pradesh
50/==/BZYBasai (3)  05:39 05:41-05:41 05:43-2m12448.351287mNCR07522289600(Gate ManMob. - 9452701575), Madhya Pradesh
51/==/TBTTalbahat (4)X  05:56 05:58-05:58 06:00-2m12461.252314mNCRKhaniyadhana Station Rd, Madhya Pradesh
52/==/LARLalitpur (3)X  06:39 06:46-06:41 06:48-2m22501.177373mNCRLalitpur, Uttar Pradesh
53/==/JLNJakhalaun (3)O  07:01-07:03-2m22517.899394mNCRLalitpur(05176-272220), Uttar Pradesh
54/==/DUADhaura (3)XO  07:10-07:12-2m--2529.420407mNCRDhaura Tanda, Madhya Pradesh
55/==/BINABina Junction (5)X  08:55-09:00-5m32564.069414mWCRJn Pt - KATNI/GUNA/ BPL/JHS, Madhya Pradesh
56/==/MABAMandi Bamora (3)X  09:15-09:17-2m22581.278413mWCRState Highway 14, Madhya Pradesh
57/==/BAQGanj Basoda (4)X  09:39-09:41-2m22609.769 WCRVidisha, Madhya Pradesh
58/==/GLGGulabhGanj (3) new halt!!X  09:57-09:59-2m--2628.074 WCRVidisha, Madhya Pradesh
59/==/BHSVidisha (3)X  10:16-10:18-2m22649.056 WCRVidisha, Madhya Pradesh
60/==/SCISanchi (2) new halt!!X  10:28-10:30-2m--2658.466428mWCRRaisen, Madhya Pradesh
61/==/BPLBhopal Junction (6)X  11:10-11:15-5m12702.538497mWCRBhopal, Madhya Pradesh
62/==/HBJBhopal HabibGanj (5)  11:25-11:27-2m42708.864496mWCRHabibGanj, Madhya Pradesh
63/==/MDDPMandi Dip (1)  11:42-11:44-2m12724.962 WCRMandideep, Madhya Pradesh
64/==/ODGObaidulla Ganj  11:57-11:59-2m12738.454 WCRObaidullaganj Raisen Dist., Madhya Pradesh
65/==/BNIBudni (2)X  12:33-12:35-2m12769.246311mWCRSehore 466445 Madhya pradesh, Madhya Pradesh
66/==/HBDHoshangabad (2)X  12:44-12:46-2m22776.232308mWCRHoshangabad, Madhya Pradesh
67/==/ETItarsi Junction (7)  13:15 13:20-13:20 13:25-5m22794.384329mWCRItarsi 461111, Madhya Pradesh
68/==/BPFBanapura (2)  13:44 13:49-13:46 13:51-2m22827.777314mWCRBanapura, Madhya Pradesh
69/==/TBNTimarni (2)  14:08 14:13-14:10 14:15-2m12855.961308mWCRTimarni, Madhya Pradesh
70/==/HDHarda (3)  14:24 14:29-14:26 14:31-2m12870.176289mWCRHarda, Madhya Pradesh
71/==/KKNKhirkiya (2)X  14:51 14:56-14:53 14:58-2m12901.680281mWCRSH 15, Madhya Pradesh
72/==/CAERChhanera (2)  15:16 15:21-15:18 15:23-2m22932.377283mWCRChhanera, Madhya Pradesh
73/==/TLVTalvadiya (2)X  15:53 15:46-15:55 15:48-2m22962.018308mWCRKhandwa, Madhya Pradesh
74/==/KNWKhandwa Junction (5)X  16:40-16:45-5m32977.778310mCRKhandwa, Madhya Pradesh
75/==/NPNRNepanagar (2)  17:18-17:20-2m--21020.368289mCRState Highway 27, Madhya Pradesh
76/==/BAUBurhanpur (2)  17:43-17:45-2m121046.693269mCRBurhanpur, Madhya Pradesh
77/==/RVRaver (2)X  17:58-18:00-2m--21066.876242mCRJalgaon, Maharashtra
78/==/NBNimbhora (2)X  18:08-18:10-2m121076.965229mCRJalgaon, Maharashtra
79/==/SAVSavda (2)X  18:18-18:20-2m221085.637220mCRSavda, Maharashtra
80/==/BSLBhusaval Junction (8)X  18:45-18:55-10m421101.163208mCRBhusaval 425201, Maharashtra
81/==/JLJalgaon Junction (4)•X  19:18-19:20-2m221125.287213mCRJalgaon 425001, Maharashtra
82/==/PCPachora Junction (4)O  19:53-19:55-2m--21172.941264mCRPachora 424201, Maharashtra
83/==/CSNChalisgaon Junction (3)X  21:00-21:05-5m--21217.7101352mCRChalisgaon 424101, Maharashtra
84/==/MMRManmad Junction (6)XO  21:45-21:50-5m321285.367580mCRManmad 423104, Maharashtra
85/==/NKNasik Road (3)X  22:55-23:00-5m321358.043563mCRNashik 422101, Maharashtra
86/==/DVLDevlali (3)XO  23:08-23:10-2m221363.830561mCRDist. Nashik 422401, Maharashtra
87/==/IGPIgatpuri (4)X  00:40-00:45-5m331408.743589mCRIgatpuri 422403, Maharashtra
88/==/KYNKalyan Junction (8)  02:40-02:45-5m631490.56710mCRKalyan 421301, Maharashtra
89/==/TNAThane (10)  03:03-03:05-2m831510.72210mCRThane (West) 400602, Maharashtra
90/==/LTTMumbai Lokmanya Tilak Terminus (5)  03:50----31527.2-7mCRMumbai - 400089, Maharashtra
Scroll to Top
Scroll to Bottom